Time;durP1;ratioP1;P1;durP2;ratioP2;P2;SDS_P1;SDS_P2;PMS_P1;PMS_P2;Temp;Humidity;BMP_temperature;BMP_pressure;BME280_temperature;BME280_humidity;BME280_pressure;Samples;Min_cycle;Max_cycle;Signal;HPM_P1;HPM_P2
2024/04/07 00:00:44;;;;;;;;;;;20.70;43.70;;;;;;1569405;74;1934;-68
2024/04/07 00:02:46;;;;;;;;;;;20.80;43.70;;;;;;1571348;74;658;-70
2024/04/07 00:04:48;;;;;;;;;;;20.70;43.80;;;;;;1561293;75;693;-70
2024/04/07 00:06:50;;;;;;;;;;;20.70;43.70;;;;;;1538917;76;706;-68
2024/04/07 00:08:52;;;;;;;;;;;20.70;43.80;;;;;;1555084;75;1626;-70
2024/04/07 00:10:54;;;;;;;;;;;20.70;43.80;;;;;;1555914;75;1546;-68
2024/04/07 00:12:55;;;;;;;;;;;20.80;43.90;;;;;;1564003;75;693;-72
2024/04/07 00:14:57;;;;;;;;;;;20.70;43.90;;;;;;1559173;75;1537;-70
2024/04/07 00:16:59;;;;;;;;;;;20.70;43.90;;;;;;1560811;75;1121;-69
2024/04/07 00:19:01;;;;;;;;;;;20.80;43.90;;;;;;1563187;75;667;-68
2024/04/07 00:21:03;;;;;;;;;;;20.80;43.90;;;;;;1531249;76;1947;-68
2024/04/07 00:23:05;;;;;;;;;;;20.70;44.00;;;;;;1528190;76;1356;-69
2024/04/07 00:25:08;;;;;;;;;;;20.70;44.00;;;;;;1553736;75;1599;-70
2024/04/07 00:27:10;;;;;;;;;;;20.80;43.90;;;;;;1555994;75;1368;-66
2024/04/07 00:29:12;;;;;;;;;;;20.80;44.00;;;;;;1550520;75;1579;-67
2024/04/07 00:31:14;;;;;;;;;;;20.80;44.00;;;;;;1546902;76;663;-68
2024/04/07 00:33:16;;;;;;;;;;;20.80;44.10;;;;;;1567620;75;883;-67
2024/04/07 00:35:18;;;;;;;;;;;20.70;44.10;;;;;;1556777;75;682;-67
2024/04/07 00:37:21;;;;;;;;;;;20.70;44.10;;;;;;1576579;75;1571;-70
2024/04/07 00:39:22;;;;;;;;;;;20.70;44.20;;;;;;1572013;74;1332;-68
2024/04/07 00:41:24;;;;;;;;;;;20.80;44.20;;;;;;1572669;74;1943;-69
2024/04/07 00:43:27;;;;;;;;;;;20.80;44.20;;;;;;1570814;74;1626;-71
2024/04/07 00:45:29;;;;;;;;;;;20.80;44.20;;;;;;1572286;74;743;-71
2024/04/07 00:47:30;;;;;;;;;;;20.70;44.20;;;;;;1573833;74;1133;-67
2024/04/07 00:49:32;;;;;;;;;;;20.80;44.20;;;;;;1571020;74;744;-71
2024/04/07 00:51:35;;;;;;;;;;;20.80;44.30;;;;;;1571195;74;1583;-67
2024/04/07 00:53:36;;;;;;;;;;;20.80;44.30;;;;;;1574261;74;1454;-68
2024/04/07 00:55:38;;;;;;;;;;;20.70;44.30;;;;;;1573460;74;1572;-69
2024/04/07 00:57:40;;;;;;;;;;;20.80;44.30;;;;;;1571124;75;1199;-66
2024/04/07 00:59:42;;;;;;;;;;;20.80;44.40;;;;;;1573995;74;1993;-67
2024/04/07 01:01:44;;;;;;;;;;;20.80;44.40;;;;;;1571736;74;722;-69
2024/04/07 01:03:46;;;;;;;;;;;20.80;44.40;;;;;;1565803;75;744;-70
2024/04/07 01:05:48;;;;;;;;;;;20.80;44.40;;;;;;1567159;75;1505;-73
2024/04/07 01:07:50;;;;;;;;;;;20.80;44.40;;;;;;1543134;76;1576;-72
2024/04/07 01:09:52;;;;;;;;;;;20.80;44.40;;;;;;1563964;75;1582;-70
2024/04/07 01:11:54;;;;;;;;;;;20.80;44.40;;;;;;1555783;75;672;-75
2024/04/07 01:13:56;;;;;;;;;;;20.70;44.40;;;;;;1557536;75;691;-67
2024/04/07 01:15:57;;;;;;;;;;;20.70;44.40;;;;;;1565836;75;764;-68
2024/04/07 01:17:59;;;;;;;;;;;20.80;44.50;;;;;;1572065;74;1607;-67
2024/04/07 01:20:01;;;;;;;;;;;20.80;44.50;;;;;;1571640;75;1930;-68
2024/04/07 01:22:03;;;;;;;;;;;20.70;44.60;;;;;;1568303;74;1638;-70
2024/04/07 01:24:05;;;;;;;;;;;20.80;44.60;;;;;;1568773;74;1484;-68
2024/04/07 01:26:07;;;;;;;;;;;20.80;44.70;;;;;;1571074;75;616;-72
2024/04/07 01:28:10;;;;;;;;;;;20.70;44.60;;;;;;1574014;74;1157;-66
2024/04/07 01:30:11;;;;;;;;;;;20.80;44.70;;;;;;1568858;74;727;-68
2024/04/07 01:32:13;;;;;;;;;;;20.80;44.70;;;;;;1569521;74;1571;-68
2024/04/07 01:34:15;;;;;;;;;;;20.80;44.70;;;;;;1571548;75;1613;-67
2024/04/07 01:36:17;;;;;;;;;;;20.80;44.70;;;;;;1571456;74;1563;-69
2024/04/07 01:38:19;;;;;;;;;;;20.80;44.70;;;;;;1566786;75;1445;-67
2024/04/07 01:40:21;;;;;;;;;;;20.80;44.70;;;;;;1573523;74;1930;-69
2024/04/07 01:42:23;;;;;;;;;;;20.80;44.80;;;;;;1571874;74;780;-71
2024/04/07 01:44:24;;;;;;;;;;;20.80;44.70;;;;;;1572360;75;643;-68
2024/04/07 01:46:26;;;;;;;;;;;20.80;44.70;;;;;;1572179;74;1588;-67
2024/04/07 01:48:28;;;;;;;;;;;20.80;44.70;;;;;;1572180;75;1600;-68
2024/04/07 01:50:30;;;;;;;;;;;20.80;44.70;;;;;;1573336;75;1589;-69
2024/04/07 01:52:32;;;;;;;;;;;20.80;44.70;;;;;;1572190;74;1338;-67
2024/04/07 01:54:34;;;;;;;;;;;20.80;44.80;;;;;;1570791;74;694;-71
2024/04/07 01:56:36;;;;;;;;;;;20.80;44.70;;;;;;1575178;74;867;-70
2024/04/07 01:58:37;;;;;;;;;;;20.80;44.80;;;;;;1570844;74;1172;-74
2024/04/07 02:00:40;;;;;;;;;;;20.80;44.80;;;;;;1570275;74;1939;-69
2024/04/07 02:02:42;;;;;;;;;;;20.80;44.80;;;;;;1571550;75;1374;-70
2024/04/07 02:04:44;;;;;;;;;;;20.80;44.80;;;;;;1572128;74;1219;-70
2024/04/07 02:06:46;;;;;;;;;;;20.80;44.80;;;;;;1573814;74;1570;-70
2024/04/07 02:08:48;;;;;;;;;;;20.80;44.80;;;;;;1573854;74;1122;-70
2024/04/07 02:10:51;;;;;;;;;;;20.80;44.80;;;;;;1572210;75;759;-67
2024/04/07 02:12:52;;;;;;;;;;;20.80;44.90;;;;;;1560664;75;680;-69
2024/04/07 02:14:54;;;;;;;;;;;20.80;44.80;;;;;;1550356;75;1600;-66
2024/04/07 02:16:56;;;;;;;;;;;20.80;44.90;;;;;;1547270;75;1339;-69
2024/04/07 02:18:58;;;;;;;;;;;20.80;44.90;;;;;;1564156;75;1557;-67
2024/04/07 02:21:00;;;;;;;;;;;20.80;44.90;;;;;;1554549;75;1952;-69
2024/04/07 02:23:03;;;;;;;;;;;20.80;44.90;;;;;;1573281;74;807;-69
2024/04/07 02:25:05;;;;;;;;;;;20.80;44.90;;;;;;1568988;75;835;-67
2024/04/07 02:27:09;;;;;;;;;;;20.80;45.00;;;;;;1574711;74;1140;-67
2024/04/07 02:29:11;;;;;;;;;;;20.80;45.00;;;;;;1574012;73;1566;-71
2024/04/07 02:31:13;;;;;;;;;;;20.80;45.00;;;;;;1568958;74;1367;-67
2024/04/07 02:33:15;;;;;;;;;;;20.80;45.00;;;;;;1573725;74;1445;-67
2024/04/07 02:35:17;;;;;;;;;;;20.80;45.00;;;;;;1570262;74;1576;-69
2024/04/07 02:37:19;;;;;;;;;;;20.80;45.00;;;;;;1566503;75;1108;-68
2024/04/07 02:39:21;;;;;;;;;;;20.80;45.00;;;;;;1575637;74;801;-71
2024/04/07 02:41:23;;;;;;;;;;;20.80;45.10;;;;;;1575143;73;1904;-72
2024/04/07 02:43:25;;;;;;;;;;;20.80;45.10;;;;;;1573338;74;1609;-68
2024/04/07 02:48:05;;;;;;;;;;;20.80;45.10;;;;;;1574503;74;1584;-71
2024/04/07 02:50:07;;;;;;;;;;;20.90;45.20;;;;;;1571648;75;1498;-71
2024/04/07 02:52:08;;;;;;;;;;;20.80;45.20;;;;;;1576120;74;761;-67
2024/04/07 02:54:10;;;;;;;;;;;20.80;45.10;;;;;;1571420;74;675;-67
2024/04/07 02:56:15;;;;;;;;;;;20.80;45.20;;;;;;1571509;74;621;-67
2024/04/07 02:58:16;;;;;;;;;;;20.80;45.20;;;;;;1573090;73;1475;-67
2024/04/07 03:00:17;;;;;;;;;;;20.90;45.40;;;;;;1571782;74;1550;-73
2024/04/07 03:02:20;;;;;;;;;;;20.90;45.40;;;;;;1572070;74;1926;-68
2024/04/07 03:04:22;;;;;;;;;;;20.80;45.30;;;;;;1570153;75;732;-68
2024/04/07 03:06:24;;;;;;;;;;;20.90;45.40;;;;;;1570894;75;809;-69
2024/04/07 03:08:26;;;;;;;;;;;20.80;45.30;;;;;;1573334;74;1172;-67
2024/04/07 03:10:28;;;;;;;;;;;20.80;45.20;;;;;;1571101;74;1371;-67
2024/04/07 03:12:30;;;;;;;;;;;20.80;45.30;;;;;;1571601;74;1591;-67
2024/04/07 03:14:32;;;;;;;;;;;20.80;45.30;;;;;;1570813;75;1570;-67
2024/04/07 03:16:34;;;;;;;;;;;20.90;45.40;;;;;;1573082;74;1463;-69
2024/04/07 03:18:35;;;;;;;;;;;20.80;45.30;;;;;;1572642;74;1124;-70
2024/04/07 03:20:37;;;;;;;;;;;20.80;45.20;;;;;;1580067;74;1943;-72
2024/04/07 03:22:39;;;;;;;;;;;20.80;45.30;;;;;;1570251;74;739;-67
2024/04/07 03:24:41;;;;;;;;;;;20.80;45.30;;;;;;1571685;74;1533;-67
2024/04/07 03:26:43;;;;;;;;;;;20.80;45.30;;;;;;1568919;75;1715;-69
2024/04/07 03:28:47;;;;;;;;;;;20.80;45.20;;;;;;1573337;74;1398;-67
2024/04/07 03:30:48;;;;;;;;;;;20.80;45.30;;;;;;1572931;74;1644;-70
2024/04/07 03:32:50;;;;;;;;;;;20.80;45.40;;;;;;1569336;74;650;-69
2024/04/07 03:34:52;;;;;;;;;;;20.80;45.40;;;;;;1576460;74;746;-70
2024/04/07 03:36:54;;;;;;;;;;;20.90;45.50;;;;;;1568361;74;647;-70
2024/04/07 03:38:56;;;;;;;;;;;20.80;45.30;;;;;;1571506;75;1564;-68
2024/04/07 03:41:00;;;;;;;;;;;20.80;45.30;;;;;;1572772;74;1949;-69
2024/04/07 03:43:02;;;;;;;;;;;20.90;45.40;;;;;;1577948;73;1750;-67
2024/04/07 03:45:04;;;;;;;;;;;20.80;45.30;;;;;;1574513;74;1537;-67
2024/04/07 03:47:06;;;;;;;;;;;20.80;45.30;;;;;;1571538;74;1157;-69
2024/04/07 03:49:08;;;;;;;;;;;20.80;45.40;;;;;;1575578;74;776;-68
2024/04/07 03:51:09;;;;;;;;;;;20.80;45.40;;;;;;1574343;74;796;-70
2024/04/07 03:53:11;;;;;;;;;;;20.80;45.40;;;;;;1574286;75;1455;-69
2024/04/07 03:55:13;;;;;;;;;;;20.90;45.50;;;;;;1557619;75;1343;-72
2024/04/07 03:57:15;;;;;;;;;;;20.90;45.50;;;;;;1562877;75;1356;-69
2024/04/07 03:59:17;;;;;;;;;;;20.90;45.50;;;;;;1557506;75;1563;-67
2024/04/07 04:01:19;;;;;;;;;;;20.80;45.40;;;;;;1555784;75;1946;-70
2024/04/07 04:03:21;;;;;;;;;;;20.80;45.40;;;;;;1566413;75;670;-67
2024/04/07 04:05:23;;;;;;;;;;;20.80;45.40;;;;;;1562278;75;743;-70
2024/04/07 04:07:29;;;;;;;;;;;20.90;45.50;;;;;;1561653;75;1551;-71
2024/04/07 04:09:28;;;;;;;;;;;20.80;45.50;;;;;;1558192;75;1540;-67
2024/04/07 04:11:30;;;;;;;;;;;20.80;45.50;;;;;;1558256;75;1402;-69
2024/04/07 04:13:33;;;;;;;;;;;20.80;45.50;;;;;;1557670;75;1499;-66
2024/04/07 04:15:35;;;;;;;;;;;20.80;45.50;;;;;;1563602;75;619;-68
2024/04/07 04:17:37;;;;;;;;;;;20.80;45.50;;;;;;1560004;75;1140;-68
2024/04/07 04:19:39;;;;;;;;;;;20.80;45.50;;;;;;1562568;75;662;-68
2024/04/07 04:21:41;;;;;;;;;;;20.80;45.50;;;;;;1565999;75;1934;-68
2024/04/07 04:23:43;;;;;;;;;;;20.80;45.50;;;;;;1561899;75;1550;-66
2024/04/07 04:25:54;;;;;;;;;;;20.80;45.50;;;;;;1558081;75;1717;-69
2024/04/07 04:27:56;;;;;;;;;;;20.80;45.50;;;;;;1556091;75;1496;-72
2024/04/07 04:29:58;;;;;;;;;;;20.80;45.50;;;;;;1559411;75;644;-67
2024/04/07 04:32:00;;;;;;;;;;;20.80;45.50;;;;;;1558346;75;667;-68
2024/04/07 04:34:02;;;;;;;;;;;20.80;45.50;;;;;;1571023;75;869;-69
2024/04/07 04:36:06;;;;;;;;;;;20.80;45.50;;;;;;1530157;76;1465;-69
2024/04/07 04:38:08;;;;;;;;;;;20.80;45.50;;;;;;1526892;76;1329;-67
2024/04/07 04:40:11;;;;;;;;;;;20.90;45.60;;;;;;1541044;76;680;-67
2024/04/07 04:42:13;;;;;;;;;;;20.90;45.70;;;;;;1544073;76;1917;-67
2024/04/07 04:44:15;;;;;;;;;;;20.90;45.60;;;;;;1539889;76;755;-67
2024/04/07 04:46:17;;;;;;;;;;;20.80;45.50;;;;;;1541906;76;674;-69
2024/04/07 04:48:19;;;;;;;;;;;20.90;45.70;;;;;;1531088;76;1162;-65
2024/04/07 04:50:21;;;;;;;;;;;20.90;45.70;;;;;;1549495;75;1563;-65
2024/04/07 04:52:23;;;;;;;;;;;20.80;45.50;;;;;;1560926;75;1579;-67
2024/04/07 04:54:24;;;;;;;;;;;20.90;45.60;;;;;;1559264;75;1541;-68
2024/04/07 04:56:26;;;;;;;;;;;20.90;45.60;;;;;;1563447;75;1613;-69
2024/04/07 04:58:32;;;;;;;;;;;20.80;45.50;;;;;;1562200;75;1145;-71
2024/04/07 05:00:34;;;;;;;;;;;20.90;45.60;;;;;;1559340;75;624;-66
2024/04/07 05:02:35;;;;;;;;;;;20.80;45.40;;;;;;1557412;75;1939;-68
2024/04/07 05:04:37;;;;;;;;;;;20.80;45.50;;;;;;1559570;75;1498;-67
2024/04/07 05:06:40;;;;;;;;;;;20.80;45.50;;;;;;1557129;75;1536;-67
2024/04/07 05:08:42;;;;;;;;;;;20.80;45.40;;;;;;1558534;75;1581;-67
2024/04/07 05:10:43;;;;;;;;;;;20.80;45.50;;;;;;1563553;75;1477;-70
2024/04/07 05:12:46;;;;;;;;;;;20.80;45.50;;;;;;1576549;75;662;-68
2024/04/07 05:14:48;;;;;;;;;;;20.80;45.50;;;;;;1557242;75;625;-71
2024/04/07 05:16:49;;;;;;;;;;;20.80;45.50;;;;;;1562224;75;687;-67
2024/04/07 05:18:51;;;;;;;;;;;20.80;45.50;;;;;;1558751;75;1581;-66
2024/04/07 05:20:56;;;;;;;;;;;20.80;45.50;;;;;;1556870;75;1681;-69
2024/04/07 05:22:58;;;;;;;;;;;20.80;45.50;;;;;;1559668;75;1930;-67
2024/04/07 05:25:00;;;;;;;;;;;20.90;45.60;;;;;;1564685;75;771;-67
2024/04/07 05:27:03;;;;;;;;;;;20.80;45.50;;;;;;1560370;75;1154;-68
2024/04/07 05:29:05;;;;;;;;;;;20.80;45.60;;;;;;1561716;75;659;-69
2024/04/07 05:31:14;;;;;;;;;;;20.90;45.70;;;;;;1565278;75;1512;-72
2024/04/07 05:33:13;;;;;;;;;;;20.80;45.60;;;;;;1541725;76;1601;-71
2024/04/07 05:35:15;;;;;;;;;;;20.90;45.70;;;;;;1544425;76;1603;-67
2024/04/07 05:37:17;;;;;;;;;;;20.90;45.70;;;;;;1550078;75;1631;-67
2024/04/07 05:39:18;;;;;;;;;;;20.90;45.80;;;;;;1560836;75;652;-68
2024/04/07 05:41:20;;;;;;;;;;;20.80;45.60;;;;;;1559617;75;1925;-69
2024/04/07 05:43:22;;;;;;;;;;;20.80;45.70;;;;;;1563218;75;716;-69
2024/04/07 05:45:24;;;;;;;;;;;20.80;45.70;;;;;;1564069;75;1567;-70
2024/04/07 05:47:26;;;;;;;;;;;20.80;45.70;;;;;;1562025;75;1624;-70
2024/04/07 05:49:28;;;;;;;;;;;20.80;45.70;;;;;;1572908;75;1410;-71
2024/04/07 05:51:30;;;;;;;;;;;20.80;45.80;;;;;;1561248;75;1567;-68
2024/04/07 05:53:32;;;;;;;;;;;20.80;45.80;;;;;;1564934;75;771;-67
2024/04/07 05:55:35;;;;;;;;;;;20.80;45.70;;;;;;1563244;75;782;-68
2024/04/07 05:57:39;;;;;;;;;;;20.80;45.70;;;;;;1571077;74;1174;-69
2024/04/07 05:59:42;;;;;;;;;;;20.80;45.70;;;;;;1571309;74;1558;-71
2024/04/07 06:01:44;;;;;;;;;;;20.80;45.80;;;;;;1572125;74;1924;-71
2024/04/07 06:03:47;;;;;;;;;;;20.80;45.90;;;;;;1570108;74;1628;-67
2024/04/07 06:05:48;;;;;;;;;;;20.80;45.80;;;;;;1571726;74;1434;-71
2024/04/07 06:07:51;;;;;;;;;;;20.80;45.80;;;;;;1570490;74;1200;-69
2024/04/07 06:09:53;;;;;;;;;;;20.80;45.90;;;;;;1571877;74;747;-68
2024/04/07 06:11:55;;;;;;;;;;;20.80;45.80;;;;;;1570445;74;770;-69
2024/04/07 06:13:56;;;;;;;;;;;20.80;45.90;;;;;;1560277;75;1451;-68
2024/04/07 06:15:58;;;;;;;;;;;20.80;45.90;;;;;;1562671;75;1350;-68
2024/04/07 06:18:01;;;;;;;;;;;20.80;45.90;;;;;;1562749;75;1341;-69
2024/04/07 06:20:04;;;;;;;;;;;20.80;45.90;;;;;;1558932;75;1564;-72
2024/04/07 06:22:06;;;;;;;;;;;20.80;45.90;;;;;;1560407;75;1908;-68
2024/04/07 06:24:07;;;;;;;;;;;20.80;45.90;;;;;;1562127;75;718;-66
2024/04/07 06:26:09;;;;;;;;;;;20.80;45.90;;;;;;1560914;75;811;-64
2024/04/07 06:28:11;;;;;;;;;;;20.80;46.00;;;;;;1562046;75;1588;-69
2024/04/07 06:30:14;;;;;;;;;;;20.80;45.90;;;;;;1564812;75;647;-68
2024/04/07 06:32:15;;;;;;;;;;;20.80;46.00;;;;;;1561088;75;1590;-69
2024/04/07 06:34:17;;;;;;;;;;;20.80;45.90;;;;;;1561785;75;1545;-68
2024/04/07 06:36:19;;;;;;;;;;;20.80;45.90;;;;;;1564223;75;756;-65
2024/04/07 06:38:21;;;;;;;;;;;20.80;46.00;;;;;;1563364;75;1134;-69
2024/04/07 06:40:23;;;;;;;;;;;20.80;46.00;;;;;;1562551;75;735;-67
2024/04/07 06:42:26;;;;;;;;;;;20.80;46.00;;;;;;1561820;75;1942;-68
2024/04/07 06:44:28;;;;;;;;;;;20.80;46.00;;;;;;1562691;75;1337;-70
2024/04/07 06:46:30;;;;;;;;;;;20.80;46.00;;;;;;1557983;75;761;-68
2024/04/07 06:48:32;;;;;;;;;;;20.80;46.00;;;;;;1551454;75;1511;-70
2024/04/07 06:50:34;;;;;;;;;;;20.80;46.00;;;;;;1559107;75;747;-70
2024/04/07 06:52:36;;;;;;;;;;;20.80;46.00;;;;;;1560070;75;683;-67
2024/04/07 06:54:38;;;;;;;;;;;20.80;46.00;;;;;;1559423;75;638;-68
2024/04/07 06:56:39;;;;;;;;;;;20.80;46.00;;;;;;1558708;75;1475;-67
2024/04/07 06:58:41;;;;;;;;;;;20.80;46.10;;;;;;1560248;75;1607;-67
2024/04/07 07:00:43;;;;;;;;;;;20.80;46.10;;;;;;1570557;75;697;-69
2024/04/07 07:02:45;;;;;;;;;;;20.80;46.10;;;;;;1571048;74;1943;-67
2024/04/07 07:04:50;;;;;;;;;;;20.80;46.00;;;;;;1571527;74;682;-66
2024/04/07 07:06:52;;;;;;;;;;;20.80;46.00;;;;;;1570943;74;750;-70
2024/04/07 07:08:54;;;;;;;;;;;20.80;46.00;;;;;;1571672;74;1141;-70
2024/04/07 07:11:02;;;;;;;;;;;20.80;46.00;;;;;;1571861;74;1573;-66
2024/04/07 07:13:04;;;;;;;;;;;20.80;46.00;;;;;;1571420;74;1528;-69
2024/04/07 07:15:06;;;;;;;;;;;20.80;46.00;;;;;;1573146;74;1556;-68
2024/04/07 07:17:08;;;;;;;;;;;20.80;46.10;;;;;;1571861;74;1569;-73
2024/04/07 07:19:10;;;;;;;;;;;20.80;46.10;;;;;;1570195;74;739;-69
2024/04/07 07:21:11;;;;;;;;;;;20.80;46.10;;;;;;1570146;74;713;-67
2024/04/07 07:23:14;;;;;;;;;;;20.80;46.10;;;;;;1571272;74;1947;-66
2024/04/07 07:25:16;;;;;;;;;;;20.80;46.10;;;;;;1570192;74;1555;-70
2024/04/07 07:27:18;;;;;;;;;;;20.80;46.10;;;;;;1571868;74;1550;-70
2024/04/07 07:29:19;;;;;;;;;;;20.80;46.10;;;;;;1569392;74;1369;-67
2024/04/07 07:31:21;;;;;;;;;;;20.80;46.10;;;;;;1570319;74;1543;-72
2024/04/07 07:33:23;;;;;;;;;;;20.80;46.20;;;;;;1571589;74;706;-66
2024/04/07 07:35:25;;;;;;;;;;;20.80;46.10;;;;;;1572447;74;689;-69
2024/04/07 07:37:27;;;;;;;;;;;20.80;46.20;;;;;;1571989;74;1235;-68
2024/04/07 07:39:29;;;;;;;;;;;20.80;46.20;;;;;;1569352;74;1590;-70
2024/04/07 07:41:31;;;;;;;;;;;20.80;46.20;;;;;;1571204;74;1299;-70
2024/04/07 07:43:32;;;;;;;;;;;20.90;46.40;;;;;;1572225;74;1931;-68
2024/04/07 07:45:34;;;;;;;;;;;20.80;46.20;;;;;;1571095;74;739;-73
2024/04/07 07:47:36;;;;;;;;;;;20.80;46.30;;;;;;1574958;74;1182;-69
2024/04/07 07:49:38;;;;;;;;;;;20.80;46.20;;;;;;1569535;74;692;-67
2024/04/07 07:51:40;;;;;;;;;;;20.80;46.30;;;;;;1570076;74;1556;-68
2024/04/07 07:53:42;;;;;;;;;;;20.90;46.40;;;;;;1568518;74;1573;-66
2024/04/07 07:55:44;;;;;;;;;;;20.90;46.40;;;;;;1569871;75;1558;-69
2024/04/07 07:57:46;;;;;;;;;;;20.80;46.30;;;;;;1569978;75;1611;-69
2024/04/07 07:59:47;;;;;;;;;;;20.80;45.60;;;;;;1578846;74;672;-68
2024/04/07 08:01:49;;;;;;;;;;;20.90;46.00;;;;;;1561733;75;606;-65
2024/04/07 08:03:51;;;;;;;;;;;20.90;46.10;;;;;;1560831;75;1927;-67
2024/04/07 08:05:53;;;;;;;;;;;20.90;46.10;;;;;;1559254;75;1523;-69
2024/04/07 08:07:55;;;;;;;;;;;20.90;46.10;;;;;;1557616;75;1565;-69
2024/04/07 08:09:57;;;;;;;;;;;20.90;46.00;;;;;;1558579;75;1537;-68
2024/04/07 08:11:59;;;;;;;;;;;20.90;45.80;;;;;;1560174;75;1448;-68
2024/04/07 08:14:01;;;;;;;;;;;21.00;45.20;;;;;;1558792;75;725;-68
2024/04/07 08:16:03;;;;;;;;;;;20.90;44.30;;;;;;1571404;75;660;-67
2024/04/07 08:18:05;;;;;;;;;;;20.90;43.80;;;;;;1574086;74;1141;-67
2024/04/07 08:20:07;;;;;;;;;;;20.90;44.00;;;;;;1571585;74;1344;-68
2024/04/07 08:22:09;;;;;;;;;;;20.90;42.90;;;;;;1570634;74;1305;-66
2024/04/07 08:24:11;;;;;;;;;;;20.80;42.30;;;;;;1571632;74;1924;-68
2024/04/07 08:26:13;;;;;;;;;;;20.90;42.00;;;;;;1570979;74;1559;-70
2024/04/07 08:28:14;;;;;;;;;;;20.80;40.70;;;;;;1572493;74;1168;-67
2024/04/07 08:30:16;;;;;;;;;;;20.80;41.60;;;;;;1569870;74;627;-69
2024/04/07 08:32:18;;;;;;;;;;;20.50;41.90;;;;;;1565730;75;667;-67
2024/04/07 08:34:20;;;;;;;;;;;20.80;42.30;;;;;;1567128;74;1493;-67
2024/04/07 08:36:22;;;;;;;;;;;20.80;42.50;;;;;;1572033;74;1659;-73
2024/04/07 08:38:24;;;;;;;;;;;20.80;42.60;;;;;;1571260;74;1606;-67
2024/04/07 08:40:26;;;;;;;;;;;20.90;42.90;;;;;;1572743;74;1579;-67
2024/04/07 08:42:28;;;;;;;;;;;20.90;42.90;;;;;;1568787;74;1945;-67
2024/04/07 08:44:31;;;;;;;;;;;20.90;43.00;;;;;;1575854;74;687;-67
2024/04/07 08:46:36;;;;;;;;;;;20.90;43.10;;;;;;1571066;74;674;-70
2024/04/07 08:48:37;;;;;;;;;;;21.00;43.10;;;;;;1562188;75;1622;-69
2024/04/07 08:50:39;;;;;;;;;;;20.90;43.20;;;;;;1568581;75;670;-65
2024/04/07 08:52:41;;;;;;;;;;;21.00;43.20;;;;;;1570481;74;1575;-70
2024/04/07 08:54:43;;;;;;;;;;;20.90;43.20;;;;;;1571606;74;1642;-69
2024/04/07 08:56:45;;;;;;;;;;;21.00;43.20;;;;;;1573204;74;647;-66
2024/04/07 08:58:47;;;;;;;;;;;21.00;43.30;;;;;;1570637;74;1109;-67
2024/04/07 09:00:49;;;;;;;;;;;20.90;43.30;;;;;;1569038;74;804;-67
2024/04/07 09:02:51;;;;;;;;;;;21.00;43.40;;;;;;1570080;74;1930;-67
2024/04/07 09:04:53;;;;;;;;;;;21.00;43.40;;;;;;1576594;74;644;-69
2024/04/07 09:06:55;;;;;;;;;;;21.00;43.40;;;;;;1572074;74;1554;-69
2024/04/07 09:08:57;;;;;;;;;;;21.00;43.40;;;;;;1571931;74;1449;-70
2024/04/07 09:10:59;;;;;;;;;;;21.00;43.40;;;;;;1572023;74;706;-71
2024/04/07 09:13:00;;;;;;;;;;;21.00;43.40;;;;;;1570499;74;723;-70
2024/04/07 09:15:02;;;;;;;;;;;21.00;43.40;;;;;;1565715;75;733;-71
2024/04/07 09:17:06;;;;;;;;;;;21.00;43.40;;;;;;1563421;75;1373;-68
2024/04/07 09:19:08;;;;;;;;;;;21.00;43.40;;;;;;1549101;76;752;-66
2024/04/07 09:21:19;;;;;;;;;;;21.00;43.50;;;;;;1555191;75;755;-69
2024/04/07 09:23:20;;;;;;;;;;;21.00;43.40;;;;;;1553031;75;1951;-66
2024/04/07 09:25:22;;;;;;;;;;;21.00;43.40;;;;;;1558183;75;1214;-70
2024/04/07 09:27:23;;;;;;;;;;;21.10;43.60;;;;;;1558305;75;1078;-67
2024/04/07 09:29:27;;;;;;;;;;;21.00;43.40;;;;;;1557284;75;613;-67
2024/04/07 09:31:29;;;;;;;;;;;21.00;43.40;;;;;;1554757;75;1598;-67
2024/04/07 09:33:37;;;;;;;;;;;21.00;43.50;;;;;;1555591;75;1730;-67
2024/04/07 09:35:39;;;;;;;;;;;21.10;43.50;;;;;;1566569;75;1565;-68
2024/04/07 09:37:41;;;;;;;;;;;21.10;43.30;;;;;;1561066;75;1345;-68
2024/04/07 09:39:44;;;;;;;;;;;21.10;43.50;;;;;;1554376;75;705;-67
2024/04/07 09:41:46;;;;;;;;;;;21.10;43.50;;;;;;1560739;75;732;-66
2024/04/07 09:43:50;;;;;;;;;;;21.10;43.20;;;;;;1547804;75;1905;-69
2024/04/07 09:45:52;;;;;;;;;;;21.10;43.20;;;;;;1558579;75;1537;-67
2024/04/07 09:47:56;;;;;;;;;;;21.10;43.30;;;;;;1561024;75;1535;-68
2024/04/07 09:50:11;;;;;;;;;;;21.00;43.20;;;;;;1563707;75;1634;-70
2024/04/07 09:52:14;;;;;;;;;;;21.00;43.30;;;;;;1567286;74;1601;-72
2024/04/07 09:54:17;;;;;;;;;;;21.10;43.30;;;;;;1568440;75;680;-73
2024/04/07 09:56:19;;;;;;;;;;;21.00;43.10;;;;;;1571193;74;1059;-71
2024/04/07 09:58:23;;;;;;;;;;;21.00;43.20;;;;;;1567601;74;1559;-70
2024/04/07 10:00:24;;;;;;;;;;;21.00;43.20;;;;;;1567486;74;1594;-67
2024/04/07 10:02:26;;;;;;;;;;;21.20;43.20;;;;;;1570089;74;1341;-68
2024/04/07 10:04:28;;;;;;;;;;;21.10;43.10;;;;;;1570049;74;1935;-70
2024/04/07 10:06:30;;;;;;;;;;;21.10;43.10;;;;;;1568561;74;690;-67
2024/04/07 10:08:34;;;;;;;;;;;21.00;43.10;;;;;;1562215;75;1135;-67
2024/04/07 10:10:37;;;;;;;;;;;21.00;43.00;;;;;;1566127;74;631;-67
2024/04/07 10:12:39;;;;;;;;;;;21.00;43.10;;;;;;1564288;75;1495;-71
2024/04/07 10:14:41;;;;;;;;;;;21.00;43.00;;;;;;1567454;75;1503;-67
2024/04/07 10:16:49;;;;;;;;;;;21.00;42.90;;;;;;1567645;74;1465;-72
2024/04/07 10:18:51;;;;;;;;;;;21.20;42.80;;;;;;1567435;74;1590;-68
2024/04/07 10:20:59;;;;;;;;;;;21.10;43.00;;;;;;1566363;74;659;-68
2024/04/07 10:23:03;;;;;;;;;;;21.00;42.80;;;;;;1568262;74;3777;-65
2024/04/07 10:25:08;;;;;;;;;;;21.00;42.90;;;;;;1588531;74;1660;-69
2024/04/07 10:27:10;;;;;;;;;;;21.40;43.10;;;;;;1584000;73;1521;-69
2024/04/07 10:29:12;;;;;;;;;;;21.10;43.00;;;;;;1589694;73;1347;-68
2024/04/07 10:31:24;;;;;;;;;;;21.10;42.90;;;;;;1573144;74;1478;-68
2024/04/07 10:33:29;;;;;;;;;;;21.00;42.90;;;;;;1589951;73;1514;-67
2024/04/07 10:35:31;;;;;;;;;;;21.10;43.00;;;;;;1592381;73;1152;-66
2024/04/07 10:37:34;;;;;;;;;;;21.00;42.90;;;;;;1592693;73;1267;-66
2024/04/07 10:39:36;;;;;;;;;;;21.00;42.90;;;;;;1589809;73;1251;-74
2024/04/07 10:41:39;;;;;;;;;;;21.00;42.80;;;;;;1590248;73;1438;-68
2024/04/07 10:43:41;;;;;;;;;;;21.10;42.80;;;;;;1591085;73;1899;-70
2024/04/07 10:45:42;;;;;;;;;;;21.00;42.80;;;;;;1594960;73;649;-68
2024/04/07 10:47:45;;;;;;;;;;;21.00;42.80;;;;;;1587119;73;1538;-68
2024/04/07 10:49:46;;;;;;;;;;;21.00;42.70;;;;;;1592710;73;645;-71
2024/04/07 10:51:48;;;;;;;;;;;21.00;42.70;;;;;;1591370;73;799;-71
2024/04/07 10:54:00;;;;;;;;;;;21.00;42.70;;;;;;1594344;73;718;-68
2024/04/07 10:56:02;;;;;;;;;;;21.10;42.80;;;;;;1592245;73;1584;-71
2024/04/07 10:58:04;;;;;;;;;;;21.00;42.70;;;;;;1572319;73;3638;-72
2024/04/07 11:00:06;;;;;;;;;;;21.10;42.70;;;;;;1562129;74;1628;-71
2024/04/07 11:02:09;;;;;;;;;;;21.10;42.80;;;;;;1560789;74;1558;-70
2024/04/07 11:04:10;;;;;;;;;;;21.10;42.80;;;;;;1564389;74;1924;-68
2024/04/07 11:06:13;;;;;;;;;;;21.00;42.70;;;;;;1563534;74;1326;-70
2024/04/07 11:08:15;;;;;;;;;;;21.10;42.80;;;;;;1562319;74;1130;-68
2024/04/07 11:10:16;;;;;;;;;;;21.10;42.70;;;;;;1558356;74;1520;-72
2024/04/07 11:12:18;;;;;;;;;;;21.00;42.70;;;;;;1563205;74;1609;-72
2024/04/07 11:14:22;;;;;;;;;;;21.00;42.60;;;;;;1560284;74;1568;-67
2024/04/07 11:16:24;;;;;;;;;;;21.00;42.60;;;;;;1564875;76;2055;-73
2024/04/07 11:18:26;;;;;;;;;;;21.10;42.70;;;;;;1561105;74;1174;-68
2024/04/07 11:20:27;;;;;;;;;;;21.10;42.70;;;;;;1562432;75;770;-70
2024/04/07 11:22:29;;;;;;;;;;;21.00;42.60;;;;;;1560777;75;678;-72
2024/04/07 11:24:34;;;;;;;;;;;21.00;42.60;;;;;;1564441;75;1939;-71
2024/04/07 11:26:36;;;;;;;;;;;21.00;42.60;;;;;;1564228;76;1468;-68
2024/04/07 11:28:38;;;;;;;;;;;21.10;42.80;;;;;;1567070;75;1600;-70
2024/04/07 11:30:41;;;;;;;;;;;21.00;42.70;;;;;;1562033;75;1579;-70
2024/04/07 11:32:45;;;;;;;;;;;21.10;42.70;;;;;;1562499;75;1648;-68
2024/04/07 11:34:47;;;;;;;;;;;21.10;42.70;;;;;;1568470;74;1531;-69
2024/04/07 11:36:49;;;;;;;;;;;21.10;42.80;;;;;;1565381;75;1214;-69
2024/04/07 11:38:51;;;;;;;;;;;21.10;42.80;;;;;;1557641;75;1697;-68
2024/04/07 11:40:52;;;;;;;;;;;21.10;42.70;;;;;;1564821;74;1689;-71
2024/04/07 11:42:54;;;;;;;;;;;21.10;42.80;;;;;;1558131;74;1590;-72
2024/04/07 11:44:56;;;;;;;;;;;21.10;42.80;;;;;;1564207;75;1932;-68
2024/04/07 11:46:58;;;;;;;;;;;21.10;42.80;;;;;;1564340;75;792;-75
2024/04/07 11:49:00;;;;;;;;;;;21.10;42.80;;;;;;1562618;74;1130;-68
2024/04/07 11:51:02;;;;;;;;;;;21.10;42.80;;;;;;1566828;74;1608;-68
2024/04/07 11:53:04;;;;;;;;;;;21.10;42.80;;;;;;1564400;75;1541;-70
2024/04/07 11:55:06;;;;;;;;;;;21.10;42.80;;;;;;1564347;76;1574;-68
2024/04/07 11:57:08;;;;;;;;;;;21.10;42.90;;;;;;1557030;75;1576;-69
2024/04/07 11:59:10;;;;;;;;;;;21.10;42.80;;;;;;1561894;74;783;-72
2024/04/07 12:01:11;;;;;;;;;;;21.10;42.80;;;;;;1557098;74;692;-68
2024/04/07 12:03:13;;;;;;;;;;;21.10;42.90;;;;;;1554746;75;670;-68
2024/04/07 12:05:15;;;;;;;;;;;21.10;42.90;;;;;;1558607;75;1935;-68
2024/04/07 12:07:17;;;;;;;;;;;21.10;42.90;;;;;;1563231;75;1596;-70